createdAt,value
2023-02-19T00:01:28.406Z,9.95
2023-02-19T00:03:56.657Z,9.96
2023-02-19T00:06:25.827Z,9.98
2023-02-19T00:08:52.897Z,9.93
2023-02-19T00:11:22.023Z,9.97
2023-02-19T00:13:51.018Z,10.01
2023-02-19T00:16:21.231Z,10.00
2023-02-19T00:18:48.138Z,9.98
2023-02-19T00:21:15.669Z,10.02
2023-02-19T00:23:42.358Z,9.97
2023-02-19T00:26:18.159Z,9.99
2023-02-19T00:28:47.723Z,9.96
2023-02-19T00:31:17.841Z,9.89
2023-02-19T00:33:46.589Z,9.74
2023-02-19T00:36:14.412Z,9.75
2023-02-19T00:38:42.442Z,9.89
2023-02-19T00:41:10.779Z,9.92
2023-02-19T00:43:37.549Z,9.95
2023-02-19T00:46:04.353Z,9.87
2023-02-19T00:48:30.992Z,9.93
2023-02-19T00:50:58.851Z,9.93
2023-02-19T00:53:25.521Z,9.91
2023-02-19T00:55:52.063Z,9.93
2023-02-19T00:58:18.688Z,9.98
2023-02-19T01:00:45.227Z,9.87
2023-02-19T01:03:11.766Z,10.04
2023-02-19T01:05:38.357Z,9.99
2023-02-19T01:08:07.047Z,9.96
2023-02-19T01:10:33.562Z,9.88
2023-02-19T01:13:00.183Z,9.95
2023-02-19T01:15:26.825Z,9.99
2023-02-19T01:17:53.479Z,9.96
2023-02-19T01:20:20.328Z,10.07
2023-02-19T01:22:46.895Z,10.06
2023-02-19T01:25:14.818Z,10.03
2023-02-19T01:27:41.428Z,10.07
2023-02-19T01:30:09.396Z,10.14
2023-02-19T01:32:36.052Z,10.09
2023-02-19T01:35:02.836Z,10.08
2023-02-19T01:37:29.484Z,9.99
2023-02-19T01:39:56.022Z,9.97
2023-02-19T01:42:24.166Z,10.06
2023-02-19T01:45:20.468Z,10.11
2023-02-19T01:47:49.280Z,10.10
2023-02-19T01:50:16.560Z,10.09
2023-02-19T01:52:43.175Z,10.04
2023-02-19T01:55:12.697Z,10.09
2023-02-19T01:57:45.229Z,10.10
2023-02-19T02:00:14.955Z,10.11
2023-02-19T02:02:44.993Z,10.14
2023-02-19T02:05:23.350Z,10.13
2023-02-19T02:07:50.367Z,10.11
2023-02-19T02:10:16.942Z,10.14
2023-02-19T02:12:44.938Z,10.11
2023-02-19T02:15:12.231Z,10.12
2023-02-19T02:17:51.906Z,10.16
2023-02-19T02:20:32.825Z,10.14
2023-02-19T02:23:07.061Z,10.19
2023-02-19T02:25:56.180Z,10.18
2023-02-19T02:28:40.553Z,10.21
2023-02-19T02:31:13.953Z,10.22
2023-02-19T02:33:46.555Z,10.21
2023-02-19T02:36:18.289Z,10.19
2023-02-19T02:38:46.215Z,10.16
2023-02-19T02:41:14.856Z,10.05
2023-02-19T02:43:41.945Z,10.14
2023-02-19T02:46:12.239Z,10.04
2023-02-19T02:48:43.320Z,10.07
2023-02-19T02:51:15.828Z,9.96
2023-02-19T02:53:54.492Z,10.10
2023-02-19T02:56:22.237Z,9.84
2023-02-19T02:58:50.189Z,10.12
2023-02-19T03:01:23.741Z,10.17
2023-02-19T03:03:57.253Z,10.10
2023-02-19T03:06:28.281Z,10.17
2023-02-19T03:08:59.194Z,10.20
2023-02-19T03:11:25.937Z,10.18
2023-02-19T03:13:58.181Z,10.21
2023-02-19T03:16:31.039Z,10.18
2023-02-19T03:18:59.436Z,10.22
2023-02-19T03:21:28.301Z,10.18
2023-02-19T03:23:57.252Z,10.20
2023-02-19T03:26:26.055Z,10.16
2023-02-19T03:28:53.814Z,10.07
2023-02-19T03:31:24.633Z,10.01
2023-02-19T03:34:00.117Z,10.09
2023-02-19T03:36:33.489Z,9.99
2023-02-19T03:39:03.459Z,10.02
2023-02-19T03:41:35.204Z,10.05
2023-02-19T03:44:10.175Z,10.04
2023-02-19T03:46:45.774Z,10.05
2023-02-19T03:49:18.743Z,10.04
2023-02-19T03:51:50.957Z,10.06
2023-02-19T03:54:23.217Z,10.08
2023-02-19T03:56:54.848Z,9.92
2023-02-19T03:59:30.280Z,9.99
2023-02-19T04:02:02.830Z,10.01
2023-02-19T04:04:33.965Z,10.03
2023-02-19T04:07:00.739Z,10.08
2023-02-19T04:09:36.324Z,10.08
2023-02-19T04:12:09.120Z,10.11
2023-02-19T04:14:40.870Z,10.12
2023-02-19T04:17:14.015Z,10.13
2023-02-19T04:19:42.827Z,9.92
2023-02-19T04:22:11.035Z,10.09
2023-02-19T04:24:40.898Z,10.14
2023-02-19T04:27:09.087Z,10.01
2023-02-19T04:29:37.126Z,10.13
2023-02-19T04:32:05.212Z,10.01
2023-02-19T04:34:31.754Z,10.06
2023-02-19T04:36:59.637Z,10.12
2023-02-19T04:39:26.199Z,10.14
2023-02-19T04:41:52.803Z,10.14
2023-02-19T04:44:19.425Z,10.19
2023-02-19T04:46:45.924Z,10.11
2023-02-19T04:49:12.484Z,10.09
2023-02-19T04:51:39.252Z,10.10
2023-02-19T04:54:07.562Z,10.03
2023-02-19T04:56:34.166Z,10.04
2023-02-19T04:59:00.700Z,10.05
2023-02-19T05:01:27.235Z,9.99
2023-02-19T05:03:53.779Z,10.03
2023-02-19T05:06:20.570Z,10.08
2023-02-19T05:08:47.097Z,10.07
2023-02-19T05:11:15.051Z,10.11
2023-02-19T05:13:41.620Z,10.03
2023-02-19T05:16:13.369Z,10.08
2023-02-19T05:18:40.200Z,9.98
2023-02-19T05:21:06.695Z,9.96
2023-02-19T05:23:33.357Z,9.89
2023-02-19T05:26:03.873Z,9.92
2023-02-19T05:28:31.825Z,9.94
2023-02-19T05:30:58.395Z,9.97
2023-02-19T05:33:25.939Z,9.97
2023-02-19T05:35:54.237Z,9.93
2023-02-19T05:38:21.853Z,9.92
2023-02-19T05:40:48.495Z,9.90
2023-02-19T05:43:15.514Z,9.82
2023-02-19T05:45:43.872Z,9.93
2023-02-19T05:48:11.204Z,9.91
2023-02-19T05:50:39.723Z,9.92
2023-02-19T05:53:12.748Z,9.92
2023-02-19T05:55:39.337Z,9.84
2023-02-19T05:58:05.937Z,9.91
2023-02-19T06:00:33.443Z,9.85
2023-02-19T06:03:01.452Z,9.86
2023-02-19T06:05:28.409Z,9.86
2023-02-19T06:07:54.973Z,9.83
2023-02-19T06:10:22.445Z,9.80
2023-02-19T06:12:52.609Z,9.79
2023-02-19T06:15:19.205Z,9.81
2023-02-19T06:17:45.704Z,9.82
2023-02-19T06:20:13.752Z,9.72
2023-02-19T06:22:40.284Z,9.82
2023-02-19T06:25:07.329Z,9.85
2023-02-19T06:27:36.237Z,9.86
2023-02-19T06:30:03.067Z,9.88
2023-02-19T06:32:29.668Z,9.75
2023-02-19T06:34:56.465Z,9.77
2023-02-19T06:37:24.360Z,9.78
2023-02-19T06:39:51.031Z,9.77
2023-02-19T06:42:17.669Z,9.75
2023-02-19T06:44:44.261Z,9.69
2023-02-19T06:47:10.801Z,9.71
2023-02-19T06:49:38.906Z,9.71
2023-02-19T06:52:05.501Z,9.75
2023-02-19T06:54:33.400Z,9.74
2023-02-19T06:57:01.301Z,9.74
2023-02-19T06:59:28.090Z,9.38
2023-02-19T07:01:54.602Z,9.68
2023-02-19T07:04:21.267Z,9.68
2023-02-19T07:06:53.695Z,9.65
2023-02-19T07:09:22.183Z,9.70
2023-02-19T07:11:50.058Z,9.68
2023-02-19T07:14:17.263Z,9.76
2023-02-19T07:16:44.436Z,9.74
2023-02-19T07:19:11.134Z,9.76
2023-02-19T07:21:38.005Z,9.68
2023-02-19T07:24:05.222Z,9.82
2023-02-19T07:26:32.259Z,9.66
2023-02-19T07:29:00.435Z,9.68
2023-02-19T07:31:27.403Z,9.74
2023-02-19T07:33:54.816Z,9.69
2023-02-19T07:36:23.010Z,9.73
2023-02-19T07:38:54.032Z,9.78
2023-02-19T07:41:23.967Z,9.55
2023-02-19T07:43:50.546Z,9.71
2023-02-19T07:46:18.442Z,9.80
2023-02-19T07:48:45.449Z,9.84
2023-02-19T07:51:14.404Z,9.78
2023-02-19T07:53:40.948Z,9.49
2023-02-19T07:56:08.538Z,9.75
2023-02-19T07:58:35.534Z,9.73
2023-02-19T08:01:10.885Z,9.73
2023-02-19T08:03:39.328Z,9.74
2023-02-19T08:06:06.690Z,9.75
2023-02-19T08:08:33.952Z,9.59
2023-02-19T08:11:01.517Z,9.53
2023-02-19T08:13:29.939Z,9.79
2023-02-19T08:16:18.233Z,9.73
2023-02-19T08:18:49.805Z,9.72
2023-02-19T08:21:16.372Z,9.71
2023-02-19T08:23:43.180Z,9.65
2023-02-19T08:26:09.696Z,9.75
2023-02-19T08:28:36.744Z,9.67
2023-02-19T08:31:12.174Z,9.66
2023-02-19T08:33:39.929Z,9.77
2023-02-19T08:36:10.887Z,9.88
2023-02-19T08:38:37.648Z,9.87
2023-02-19T08:41:05.924Z,10.02
2023-02-19T08:43:33.022Z,9.99
2023-02-19T08:46:00.123Z,9.94
2023-02-19T08:48:27.085Z,9.97
2023-02-19T08:50:55.193Z,9.93
2023-02-19T08:53:23.801Z,10.07
2023-02-19T08:55:50.782Z,9.99
2023-02-19T08:58:17.456Z,9.74
2023-02-19T09:00:44.102Z,9.91
2023-02-19T09:03:10.847Z,9.85
2023-02-19T09:05:37.747Z,9.90
2023-02-19T09:08:04.465Z,9.84
2023-02-19T09:10:32.508Z,9.82
2023-02-19T09:12:59.249Z,9.75
2023-02-19T09:15:26.178Z,9.87
2023-02-19T09:17:53.178Z,9.79
2023-02-19T09:20:20.153Z,9.92
2023-02-19T09:22:47.119Z,9.95
2023-02-19T09:25:13.917Z,10.00
2023-02-19T09:27:41.877Z,10.04
2023-02-19T09:30:09.010Z,10.10
2023-02-19T09:32:35.694Z,10.17
2023-02-19T09:35:02.216Z,10.10
2023-02-19T09:37:28.804Z,10.22
2023-02-19T09:39:55.630Z,10.24
2023-02-19T09:42:24.470Z,10.22
2023-02-19T09:44:57.462Z,10.31
2023-02-19T09:47:26.117Z,10.32
2023-02-19T09:49:55.764Z,10.38
2023-02-19T09:52:31.454Z,10.35
2023-02-19T09:55:01.314Z,10.52
2023-02-19T09:57:30.959Z,10.39
2023-02-19T10:00:04.320Z,10.61
2023-02-19T10:02:31.602Z,10.64
2023-02-19T10:04:58.715Z,10.64
2023-02-19T10:07:29.967Z,10.54
2023-02-19T10:10:00.159Z,10.49
2023-02-19T10:12:30.080Z,10.42
2023-02-19T10:15:05.130Z,10.40
2023-02-19T10:17:32.470Z,10.36
2023-02-19T10:19:59.051Z,10.38
2023-02-19T10:22:25.875Z,10.35
2023-02-19T10:24:55.982Z,10.23
2023-02-19T10:27:25.162Z,10.33
2023-02-19T10:29:54.429Z,10.25
2023-02-19T10:32:24.567Z,10.25
2023-02-19T10:35:09.993Z,10.22
2023-02-19T10:37:43.074Z,10.39
2023-02-19T10:40:16.109Z,10.41
2023-02-19T10:42:46.111Z,10.47
2023-02-19T10:45:19.815Z,10.54
2023-02-19T10:47:48.072Z,10.52
2023-02-19T10:50:23.585Z,10.58
2023-02-19T10:52:53.577Z,10.57
2023-02-19T10:55:27.576Z,10.67
2023-02-19T10:57:54.209Z,10.77
2023-02-19T11:00:23.724Z,10.73
2023-02-19T11:03:19.091Z,10.75
2023-02-19T11:06:00.810Z,10.88
2023-02-19T11:08:28.152Z,10.80
2023-02-19T11:10:54.928Z,10.98
2023-02-19T11:13:28.464Z,11.02
2023-02-19T11:15:56.243Z,11.05
2023-02-19T11:18:27.017Z,11.07
2023-02-19T11:20:56.517Z,10.99
2023-02-19T11:23:27.642Z,10.77
2023-02-19T11:25:57.319Z,10.70
2023-02-19T11:28:30.768Z,10.85
2023-02-19T11:31:14.582Z,10.83
2023-02-19T11:33:52.277Z,10.82
2023-02-19T11:36:31.307Z,10.70
2023-02-19T11:39:02.600Z,10.74
2023-02-19T11:42:03.800Z,10.66
2023-02-19T11:44:46.489Z,10.52
2023-02-19T11:47:51.164Z,10.53
2023-02-19T11:50:26.915Z,10.38
2023-02-19T11:53:07.137Z,10.46
2023-02-19T11:55:53.796Z,10.50
2023-02-19T11:58:55.294Z,10.66
2023-02-19T12:01:26.945Z,10.70
2023-02-19T12:04:02.609Z,10.75
2023-02-19T12:06:44.794Z,10.68
2023-02-19T12:09:28.665Z,10.71
2023-02-19T12:12:38.186Z,10.85
2023-02-19T12:15:35.299Z,10.70
2023-02-19T12:18:24.347Z,10.90
2023-02-19T12:21:04.299Z,10.92
2023-02-19T12:24:11.539Z,11.01
2023-02-19T12:26:47.519Z,10.63
2023-02-19T12:29:32.451Z,10.87
2023-02-19T12:32:18.140Z,10.82
2023-02-19T12:35:02.459Z,10.81
2023-02-19T12:37:40.937Z,10.79
2023-02-19T12:40:25.587Z,10.90
2023-02-19T12:43:04.951Z,10.87
2023-02-19T12:45:37.752Z,11.00
2023-02-19T12:48:14.083Z,11.03
2023-02-19T12:50:41.957Z,11.05
2023-02-19T12:53:24.679Z,11.12
2023-02-19T12:55:53.748Z,11.26
2023-02-19T12:58:29.175Z,11.07
2023-02-19T13:00:57.104Z,11.20
2023-02-19T13:03:30.347Z,11.06
2023-02-19T13:06:02.915Z,11.19
2023-02-19T13:08:36.513Z,11.39
2023-02-19T13:11:09.555Z,11.44
2023-02-19T13:13:40.773Z,11.51
2023-02-19T13:16:11.426Z,11.53
2023-02-19T13:18:43.924Z,11.40
2023-02-19T13:21:12.404Z,11.36
2023-02-19T13:23:42.979Z,11.31
2023-02-19T13:26:31.125Z,11.10
2023-02-19T13:29:09.925Z,11.33
2023-02-19T13:31:53.630Z,11.26
2023-02-19T13:34:33.492Z,11.35
2023-02-19T13:37:01.297Z,11.44
2023-02-19T13:39:29.243Z,11.54
2023-02-19T13:41:59.261Z,11.59
2023-02-19T13:44:28.568Z,11.58
2023-02-19T13:46:55.296Z,11.65
2023-02-19T13:49:48.801Z,11.68
2023-02-19T13:52:40.504Z,11.59
2023-02-19T13:55:44.123Z,11.51
2023-02-19T13:58:50.247Z,11.44
2023-02-19T14:01:18.375Z,11.39
2023-02-19T14:03:48.243Z,11.15
2023-02-19T14:06:14.852Z,10.98
2023-02-19T14:08:49.760Z,10.72
2023-02-19T14:11:17.658Z,10.63
2023-02-19T14:14:24.416Z,10.61
2023-02-19T14:16:56.869Z,10.44
2023-02-19T14:19:58.479Z,10.37
2023-02-19T14:22:47.519Z,10.44
2023-02-19T14:25:26.980Z,10.45
2023-02-19T14:27:57.001Z,10.39
2023-02-19T14:30:24.101Z,10.28
2023-02-19T14:33:02.739Z,10.23
2023-02-19T14:35:40.285Z,10.25
2023-02-19T14:38:14.212Z,10.35
2023-02-19T14:40:42.060Z,10.19
2023-02-19T14:43:14.138Z,10.33
2023-02-19T14:45:43.750Z,10.38
2023-02-19T14:48:21.169Z,10.41
2023-02-19T14:50:50.794Z,10.43
2023-02-19T14:53:20.280Z,10.46
2023-02-19T14:55:47.865Z,10.49
2023-02-19T14:58:19.721Z,10.30
2023-02-19T15:00:46.454Z,10.38
2023-02-19T15:03:29.759Z,10.42
2023-02-19T15:06:00.665Z,10.42
2023-02-19T15:08:32.410Z,10.46
2023-02-19T15:10:59.435Z,10.48
2023-02-19T15:13:29.191Z,10.52
2023-02-19T15:15:57.044Z,10.49
2023-02-19T15:18:25.268Z,10.47
2023-02-19T15:20:59.923Z,10.51
2023-02-19T15:23:27.676Z,10.37
2023-02-19T15:25:54.357Z,10.53
2023-02-19T15:28:30.324Z,10.58
2023-02-19T15:31:14.025Z,10.55
2023-02-19T15:33:49.183Z,10.51
2023-02-19T15:36:24.675Z,10.41
2023-02-19T15:38:56.715Z,10.43
2023-02-19T15:41:26.396Z,10.34
2023-02-19T15:43:59.127Z,10.34
2023-02-19T15:46:26.108Z,10.18
2023-02-19T15:48:59.478Z,10.04
2023-02-19T15:51:34.709Z,10.06
2023-02-19T15:54:07.338Z,10.06
2023-02-19T15:56:37.896Z,9.86
2023-02-19T15:59:12.041Z,9.90
2023-02-19T16:01:39.831Z,9.83
2023-02-19T16:04:12.179Z,9.92
2023-02-19T16:06:53.205Z,9.92
2023-02-19T16:09:21.698Z,9.95
2023-02-19T16:11:51.071Z,9.87
2023-02-19T16:14:29.044Z,9.91
2023-02-19T16:16:58.367Z,9.92
2023-02-19T16:19:28.643Z,9.89
2023-02-19T16:21:58.126Z,9.90
2023-02-19T16:24:30.992Z,9.89
2023-02-19T16:26:58.824Z,9.88
2023-02-19T16:29:27.896Z,9.86
2023-02-19T16:31:57.094Z,9.81
2023-02-19T16:34:32.629Z,9.86
2023-02-19T16:37:01.781Z,9.86
2023-02-19T16:39:28.472Z,9.82
2023-02-19T16:42:15.987Z,9.83
2023-02-19T16:44:43.519Z,9.73
2023-02-19T16:47:30.847Z,9.84
2023-02-19T16:50:00.016Z,9.80
2023-02-19T16:52:28.835Z,9.82
2023-02-19T16:54:55.447Z,9.72
2023-02-19T16:57:22.072Z,9.70
2023-02-19T16:59:48.680Z,9.57
2023-02-19T17:02:22.135Z,9.52
2023-02-19T17:04:49.234Z,9.64
2023-02-19T17:07:17.494Z,9.62
2023-02-19T17:09:45.691Z,9.57
2023-02-19T17:12:13.383Z,9.66
2023-02-19T17:14:40.424Z,9.67
2023-02-19T17:17:07.190Z,9.65
2023-02-19T17:19:33.879Z,9.68
2023-02-19T17:22:00.493Z,9.56
2023-02-19T17:24:27.198Z,9.58
2023-02-19T17:26:55.070Z,9.51
2023-02-19T17:29:21.761Z,9.52
2023-02-19T17:31:48.405Z,9.53
2023-02-19T17:34:15.086Z,9.52
2023-02-19T17:36:41.692Z,9.55
2023-02-19T17:39:13.893Z,9.43
2023-02-19T17:41:40.961Z,9.55
2023-02-19T17:44:08.989Z,9.55
2023-02-19T17:46:35.852Z,9.54
2023-02-19T17:49:02.432Z,9.46
2023-02-19T17:51:29.101Z,9.48
2023-02-19T17:53:55.701Z,9.32
2023-02-19T17:56:24.420Z,9.44
2023-02-19T17:58:51.791Z,9.31
2023-02-19T18:01:20.314Z,9.43
2023-02-19T18:03:47.276Z,9.36
2023-02-19T18:06:14.275Z,9.42
2023-02-19T18:08:46.980Z,9.34
2023-02-19T18:11:13.870Z,9.34
2023-02-19T18:13:40.493Z,9.29
2023-02-19T18:16:07.377Z,9.32
2023-02-19T18:18:35.624Z,9.30
2023-02-19T18:21:02.294Z,9.25
2023-02-19T18:23:29.032Z,9.21
2023-02-19T18:25:55.631Z,9.19
2023-02-19T18:28:22.320Z,9.25
2023-02-19T18:30:49.139Z,9.27
2023-02-19T18:33:15.717Z,9.23
2023-02-19T18:35:43.669Z,9.26
2023-02-19T18:38:10.193Z,9.28
2023-02-19T18:40:36.766Z,9.27
2023-02-19T18:43:04.402Z,9.25
2023-02-19T18:45:31.135Z,9.28
2023-02-19T18:47:57.638Z,9.25
2023-02-19T18:50:24.188Z,9.07
2023-02-19T18:52:52.084Z,9.12
2023-02-19T18:55:18.769Z,9.14
2023-02-19T18:57:46.145Z,9.03
2023-02-19T19:00:19.145Z,9.07
2023-02-19T19:02:49.818Z,9.03
2023-02-19T19:05:19.351Z,8.88
2023-02-19T19:07:45.842Z,8.80
2023-02-19T19:10:13.778Z,8.99
2023-02-19T19:12:40.279Z,8.97
2023-02-19T19:15:07.514Z,8.98
2023-02-19T19:17:34.017Z,8.89
2023-02-19T19:20:00.591Z,8.76
2023-02-19T19:22:27.388Z,8.78
2023-02-19T19:24:53.948Z,8.73
2023-02-19T19:27:21.857Z,8.74
2023-02-19T19:29:48.682Z,8.65
2023-02-19T19:32:15.793Z,8.70
2023-02-19T19:34:42.569Z,8.69
2023-02-19T19:37:09.605Z,8.61
2023-02-19T19:39:36.298Z,8.66
2023-02-19T19:42:02.986Z,8.65
2023-02-19T19:44:30.903Z,8.62
2023-02-19T19:46:57.556Z,8.43
2023-02-19T19:49:24.682Z,8.57
2023-02-19T19:51:51.773Z,8.57
2023-02-19T19:54:19.489Z,8.31
2023-02-19T19:56:47.378Z,8.55
2023-02-19T19:59:16.944Z,8.52
2023-02-19T20:01:50.144Z,8.53
2023-02-19T20:04:17.413Z,8.51
2023-02-19T20:06:44.115Z,8.52
2023-02-19T20:09:11.198Z,8.50
2023-02-19T20:11:44.060Z,8.51
2023-02-19T20:14:10.733Z,8.46
2023-02-19T20:16:37.449Z,8.33
2023-02-19T20:19:05.675Z,8.43
2023-02-19T20:21:32.263Z,8.41
2023-02-19T20:23:59.355Z,8.21
2023-02-19T20:26:28.212Z,8.34
2023-02-19T20:28:55.573Z,8.28
2023-02-19T20:31:22.934Z,8.25
2023-02-19T20:33:50.480Z,8.22
2023-02-19T20:36:19.006Z,8.32
2023-02-19T20:38:46.119Z,8.26
2023-02-19T20:41:13.093Z,8.37
2023-02-19T20:43:39.801Z,8.38
2023-02-19T20:46:06.396Z,8.37
2023-02-19T20:48:33.226Z,8.36
2023-02-19T20:50:59.765Z,8.30
2023-02-19T20:53:28.810Z,8.32
2023-02-19T20:55:55.830Z,8.16
2023-02-19T20:58:23.045Z,8.27
2023-02-19T21:00:49.671Z,8.25
2023-02-19T21:03:16.270Z,8.22
2023-02-19T21:05:42.800Z,8.18
2023-02-19T21:08:09.342Z,7.80
2023-02-19T21:10:37.363Z,8.16
2023-02-19T21:13:04.202Z,8.19
2023-02-19T21:15:30.711Z,8.16
2023-02-19T21:17:57.419Z,8.12
2023-02-19T21:20:23.940Z,8.07
2023-02-19T21:22:50.539Z,8.16
2023-02-19T21:25:17.210Z,8.18
2023-02-19T21:27:45.393Z,8.02
2023-02-19T21:30:12.345Z,8.13
2023-02-19T21:32:38.919Z,8.15
2023-02-19T21:35:05.932Z,8.12
2023-02-19T21:37:32.548Z,8.03
2023-02-19T21:39:59.079Z,8.03
2023-02-19T21:42:27.907Z,8.05
2023-02-19T21:44:55.969Z,8.05
2023-02-19T21:47:22.500Z,7.87
2023-02-19T21:49:49.025Z,8.05
2023-02-19T21:52:15.695Z,8.02
2023-02-19T21:54:42.201Z,8.01
2023-02-19T21:57:08.904Z,7.97
2023-02-19T21:59:35.432Z,7.98
2023-02-19T22:02:03.450Z,7.83
2023-02-19T22:04:30.107Z,7.81
2023-02-19T22:06:56.836Z,7.82
2023-02-19T22:09:23.360Z,7.77
2023-02-19T22:11:50.035Z,7.58
2023-02-19T22:14:16.549Z,7.82
2023-02-19T22:16:43.168Z,7.79
2023-02-19T22:19:12.369Z,7.75
2023-02-19T22:21:42.901Z,7.72
2023-02-19T22:24:14.885Z,7.65
2023-02-19T22:26:41.480Z,7.42
2023-02-19T22:29:10.147Z,7.54
2023-02-19T22:31:37.067Z,7.49
2023-02-19T22:34:04.128Z,7.45
2023-02-19T22:36:33.734Z,7.41
2023-02-19T22:39:01.327Z,7.36
2023-02-19T22:41:28.511Z,7.28
2023-02-19T22:43:55.847Z,7.12
2023-02-19T22:46:24.142Z,7.17
2023-02-19T22:48:51.110Z,7.15
2023-02-19T22:51:19.467Z,6.98
2023-02-19T22:53:49.811Z,6.87
2023-02-19T22:56:18.185Z,6.93
2023-02-19T22:58:44.999Z,6.83
2023-02-19T23:01:13.128Z,6.77
2023-02-19T23:03:45.658Z,6.72
2023-02-19T23:06:12.546Z,6.68
2023-02-19T23:08:39.324Z,6.62
2023-02-19T23:11:07.538Z,6.56
2023-02-19T23:13:34.028Z,6.49
2023-02-19T23:16:01.060Z,6.43
2023-02-19T23:18:27.597Z,6.37
2023-02-19T23:20:54.165Z,6.15
2023-02-19T23:23:20.725Z,6.23
2023-02-19T23:25:47.340Z,6.19
2023-02-19T23:28:15.407Z,6.13
2023-02-19T23:30:42.484Z,6.08
2023-02-19T23:33:09.074Z,5.99
2023-02-19T23:35:35.825Z,5.90
2023-02-19T23:38:02.671Z,5.81
2023-02-19T23:40:29.633Z,5.61
2023-02-19T23:42:56.134Z,5.68
2023-02-19T23:45:24.309Z,5.61
2023-02-19T23:47:51.069Z,5.56
2023-02-19T23:50:18.550Z,5.52
2023-02-19T23:52:45.142Z,5.44
2023-02-19T23:55:11.788Z,5.35
2023-02-19T23:57:38.312Z,5.24
